sensor_id;sensor_type;location;lat;lon;timestamp;P1;durP1;ratioP1;P2;durP2;ratioP2
31694;SDS011;18289;51.330;4.946;2024-01-25T00:01:29;30.52;;;6.82;;
31694;SDS011;18289;51.330;4.946;2024-01-25T00:03:54;39.83;;;7.03;;
31694;SDS011;18289;51.330;4.946;2024-01-25T00:06:20;31.85;;;8.27;;
31694;SDS011;18289;51.330;4.946;2024-01-25T00:08:46;26.92;;;7.25;;
31694;SDS011;18289;51.330;4.946;2024-01-25T00:11:12;26.20;;;6.90;;
31694;SDS011;18289;51.330;4.946;2024-01-25T00:13:37;33.70;;;6.85;;
31694;SDS011;18289;51.330;4.946;2024-01-25T00:16:04;34.28;;;7.00;;
31694;SDS011;18289;51.330;4.946;2024-01-25T00:18:30;35.20;;;7.65;;
31694;SDS011;18289;51.330;4.946;2024-01-25T00:20:55;31.92;;;6.40;;
31694;SDS011;18289;51.330;4.946;2024-01-25T00:23:21;29.50;;;6.80;;
31694;SDS011;18289;51.330;4.946;2024-01-25T00:25:47;33.63;;;7.25;;
31694;SDS011;18289;51.330;4.946;2024-01-25T00:30:40;28.83;;;7.55;;
31694;SDS011;18289;51.330;4.946;2024-01-25T00:33:06;33.70;;;7.38;;
31694;SDS011;18289;51.330;4.946;2024-01-25T00:35:32;31.92;;;7.32;;
31694;SDS011;18289;51.330;4.946;2024-01-25T00:37:59;33.20;;;8.20;;
31694;SDS011;18289;51.330;4.946;2024-01-25T00:40:25;29.13;;;7.22;;
31694;SDS011;18289;51.330;4.946;2024-01-25T00:42:51;32.83;;;7.50;;
31694;SDS011;18289;51.330;4.946;2024-01-25T00:47:47;30.88;;;5.80;;
31694;SDS011;18289;51.330;4.946;2024-01-25T00:50:13;37.65;;;6.80;;
31694;SDS011;18289;51.330;4.946;2024-01-25T00:52:42;24.98;;;6.00;;
31694;SDS011;18289;51.330;4.946;2024-01-25T00:55:08;33.92;;;7.95;;
31694;SDS011;18289;51.330;4.946;2024-01-25T00:57:35;34.22;;;6.60;;
31694;SDS011;18289;51.330;4.946;2024-01-25T01:00:01;27.05;;;6.53;;
31694;SDS011;18289;51.330;4.946;2024-01-25T01:02:29;23.95;;;5.57;;
31694;SDS011;18289;51.330;4.946;2024-01-25T01:05:00;29.73;;;6.15;;
31694;SDS011;18289;51.330;4.946;2024-01-25T01:07:26;29.25;;;5.43;;
31694;SDS011;18289;51.330;4.946;2024-01-25T01:09:52;35.10;;;7.55;;
31694;SDS011;18289;51.330;4.946;2024-01-25T01:12:17;36.88;;;6.78;;
31694;SDS011;18289;51.330;4.946;2024-01-25T01:14:43;35.40;;;6.57;;
31694;SDS011;18289;51.330;4.946;2024-01-25T01:17:09;28.63;;;5.90;;
31694;SDS011;18289;51.330;4.946;2024-01-25T01:19:34;32.60;;;5.82;;
31694;SDS011;18289;51.330;4.946;2024-01-25T01:22:00;28.95;;;6.15;;
31694;SDS011;18289;51.330;4.946;2024-01-25T01:24:26;33.90;;;6.13;;
31694;SDS011;18289;51.330;4.946;2024-01-25T01:26:51;29.60;;;6.05;;
31694;SDS011;18289;51.330;4.946;2024-01-25T01:29:17;32.72;;;6.32;;
31694;SDS011;18289;51.330;4.946;2024-01-25T01:31:43;28.95;;;6.18;;
31694;SDS011;18289;51.330;4.946;2024-01-25T01:34:09;25.65;;;5.72;;
31694;SDS011;18289;51.330;4.946;2024-01-25T01:36:37;30.98;;;5.55;;
31694;SDS011;18289;51.330;4.946;2024-01-25T01:39:03;26.65;;;6.35;;
31694;SDS011;18289;51.330;4.946;2024-01-25T01:41:29;37.40;;;6.47;;
31694;SDS011;18289;51.330;4.946;2024-01-25T01:43:55;36.45;;;6.68;;
31694;SDS011;18289;51.330;4.946;2024-01-25T01:46:25;23.80;;;5.97;;
31694;SDS011;18289;51.330;4.946;2024-01-25T01:48:54;27.67;;;5.80;;
31694;SDS011;18289;51.330;4.946;2024-01-25T01:51:20;32.70;;;6.00;;
31694;SDS011;18289;51.330;4.946;2024-01-25T01:53:46;27.55;;;5.50;;
31694;SDS011;18289;51.330;4.946;2024-01-25T01:56:12;24.55;;;5.10;;
31694;SDS011;18289;51.330;4.946;2024-01-25T01:58:39;34.22;;;7.03;;
31694;SDS011;18289;51.330;4.946;2024-01-25T02:01:05;31.88;;;6.00;;
31694;SDS011;18289;51.330;4.946;2024-01-25T02:03:31;35.03;;;6.32;;
31694;SDS011;18289;51.330;4.946;2024-01-25T02:05:57;26.20;;;5.30;;
31694;SDS011;18289;51.330;4.946;2024-01-25T02:08:27;34.17;;;5.68;;
31694;SDS011;18289;51.330;4.946;2024-01-25T02:10:54;31.55;;;5.57;;
31694;SDS011;18289;51.330;4.946;2024-01-25T02:13:20;30.13;;;6.53;;
31694;SDS011;18289;51.330;4.946;2024-01-25T02:15:47;28.17;;;6.20;;
31694;SDS011;18289;51.330;4.946;2024-01-25T02:18:12;24.35;;;5.78;;
31694;SDS011;18289;51.330;4.946;2024-01-25T02:20:38;32.15;;;5.90;;
31694;SDS011;18289;51.330;4.946;2024-01-25T02:23:04;29.77;;;5.80;;
31694;SDS011;18289;51.330;4.946;2024-01-25T02:25:29;28.23;;;6.22;;
31694;SDS011;18289;51.330;4.946;2024-01-25T02:27:55;28.63;;;5.95;;
31694;SDS011;18289;51.330;4.946;2024-01-25T02:30:21;24.48;;;5.65;;
31694;SDS011;18289;51.330;4.946;2024-01-25T02:32:46;20.63;;;4.97;;
31694;SDS011;18289;51.330;4.946;2024-01-25T02:35:12;38.00;;;7.13;;
31694;SDS011;18289;51.330;4.946;2024-01-25T02:37:38;31.33;;;6.50;;
31694;SDS011;18289;51.330;4.946;2024-01-25T02:40:04;27.13;;;5.53;;
31694;SDS011;18289;51.330;4.946;2024-01-25T02:42:30;28.13;;;5.60;;
31694;SDS011;18289;51.330;4.946;2024-01-25T02:44:55;35.50;;;6.55;;
31694;SDS011;18289;51.330;4.946;2024-01-25T02:47:21;34.63;;;6.18;;
31694;SDS011;18289;51.330;4.946;2024-01-25T02:49:47;33.53;;;5.85;;
31694;SDS011;18289;51.330;4.946;2024-01-25T02:52:12;29.63;;;6.60;;
31694;SDS011;18289;51.330;4.946;2024-01-25T02:54:38;32.35;;;5.60;;
31694;SDS011;18289;51.330;4.946;2024-01-25T02:57:04;28.63;;;5.47;;
31694;SDS011;18289;51.330;4.946;2024-01-25T02:59:30;29.33;;;5.72;;
31694;SDS011;18289;51.330;4.946;2024-01-25T03:01:56;21.67;;;4.60;;
31694;SDS011;18289;51.330;4.946;2024-01-25T03:04:22;21.48;;;5.00;;
31694;SDS011;18289;51.330;4.946;2024-01-25T03:06:48;25.67;;;5.43;;
31694;SDS011;18289;51.330;4.946;2024-01-25T03:09:14;21.05;;;5.18;;
31694;SDS011;18289;51.330;4.946;2024-01-25T03:11:40;17.08;;;5.05;;
31694;SDS011;18289;51.330;4.946;2024-01-25T03:14:05;23.23;;;6.10;;
31694;SDS011;18289;51.330;4.946;2024-01-25T03:16:31;26.98;;;5.43;;
31694;SDS011;18289;51.330;4.946;2024-01-25T03:18:57;21.63;;;5.15;;
31694;SDS011;18289;51.330;4.946;2024-01-25T03:21:23;20.98;;;5.30;;
31694;SDS011;18289;51.330;4.946;2024-01-25T03:23:48;29.65;;;5.75;;
31694;SDS011;18289;51.330;4.946;2024-01-25T03:26:14;21.95;;;5.32;;
31694;SDS011;18289;51.330;4.946;2024-01-25T03:31:06;41.85;;;6.80;;
31694;SDS011;18289;51.330;4.946;2024-01-25T03:33:32;26.33;;;5.05;;
31694;SDS011;18289;51.330;4.946;2024-01-25T03:36:02;26.63;;;7.00;;
31694;SDS011;18289;51.330;4.946;2024-01-25T03:38:28;28.27;;;5.28;;
31694;SDS011;18289;51.330;4.946;2024-01-25T03:40:54;24.10;;;5.45;;
31694;SDS011;18289;51.330;4.946;2024-01-25T03:43:21;29.50;;;5.28;;
31694;SDS011;18289;51.330;4.946;2024-01-25T03:45:49;38.35;;;5.32;;
31694;SDS011;18289;51.330;4.946;2024-01-25T03:48:15;30.70;;;5.95;;
31694;SDS011;18289;51.330;4.946;2024-01-25T03:50:41;30.83;;;5.78;;
31694;SDS011;18289;51.330;4.946;2024-01-25T03:53:06;32.53;;;5.75;;
31694;SDS011;18289;51.330;4.946;2024-01-25T03:55:32;30.40;;;5.53;;
31694;SDS011;18289;51.330;4.946;2024-01-25T03:57:58;27.98;;;6.28;;
31694;SDS011;18289;51.330;4.946;2024-01-25T04:00:24;23.27;;;4.80;;
31694;SDS011;18289;51.330;4.946;2024-01-25T04:02:50;30.23;;;4.72;;
31694;SDS011;18289;51.330;4.946;2024-01-25T04:05:16;31.65;;;5.57;;
31694;SDS011;18289;51.330;4.946;2024-01-25T04:07:42;32.25;;;5.40;;
31694;SDS011;18289;51.330;4.946;2024-01-25T04:10:07;27.50;;;5.05;;
31694;SDS011;18289;51.330;4.946;2024-01-25T04:12:33;33.72;;;6.75;;
31694;SDS011;18289;51.330;4.946;2024-01-25T04:14:59;26.27;;;6.75;;
31694;SDS011;18289;51.330;4.946;2024-01-25T04:17:25;23.10;;;6.40;;
31694;SDS011;18289;51.330;4.946;2024-01-25T04:19:51;30.33;;;5.47;;
31694;SDS011;18289;51.330;4.946;2024-01-25T04:22:17;35.60;;;7.28;;
31694;SDS011;18289;51.330;4.946;2024-01-25T04:24:42;31.73;;;5.30;;
31694;SDS011;18289;51.330;4.946;2024-01-25T04:29:38;35.17;;;5.78;;
31694;SDS011;18289;51.330;4.946;2024-01-25T04:34:35;21.70;;;5.50;;
31694;SDS011;18289;51.330;4.946;2024-01-25T04:37:04;28.52;;;5.20;;
31694;SDS011;18289;51.330;4.946;2024-01-25T04:39:29;26.70;;;4.80;;
31694;SDS011;18289;51.330;4.946;2024-01-25T04:41:55;26.33;;;5.88;;
31694;SDS011;18289;51.330;4.946;2024-01-25T04:44:21;25.38;;;6.50;;
31694;SDS011;18289;51.330;4.946;2024-01-25T04:46:46;23.77;;;5.28;;
31694;SDS011;18289;51.330;4.946;2024-01-25T04:49:12;24.50;;;5.45;;
31694;SDS011;18289;51.330;4.946;2024-01-25T04:51:38;31.08;;;5.28;;
31694;SDS011;18289;51.330;4.946;2024-01-25T04:54:04;17.20;;;4.53;;
31694;SDS011;18289;51.330;4.946;2024-01-25T04:56:31;26.95;;;5.47;;
31694;SDS011;18289;51.330;4.946;2024-01-25T04:58:57;27.55;;;5.90;;
31694;SDS011;18289;51.330;4.946;2024-01-25T05:01:22;25.83;;;6.00;;
31694;SDS011;18289;51.330;4.946;2024-01-25T05:03:48;25.77;;;6.50;;
31694;SDS011;18289;51.330;4.946;2024-01-25T05:06:14;20.98;;;5.95;;
31694;SDS011;18289;51.330;4.946;2024-01-25T05:08:41;22.08;;;6.40;;
31694;SDS011;18289;51.330;4.946;2024-01-25T05:11:08;29.60;;;7.05;;
31694;SDS011;18289;51.330;4.946;2024-01-25T05:13:34;28.17;;;7.88;;
31694;SDS011;18289;51.330;4.946;2024-01-25T05:16:00;27.73;;;6.80;;
31694;SDS011;18289;51.330;4.946;2024-01-25T05:18:25;26.48;;;6.18;;
31694;SDS011;18289;51.330;4.946;2024-01-25T05:20:51;27.15;;;5.90;;
31694;SDS011;18289;51.330;4.946;2024-01-25T05:23:17;32.97;;;6.78;;
31694;SDS011;18289;51.330;4.946;2024-01-25T05:25:45;31.60;;;6.93;;
31694;SDS011;18289;51.330;4.946;2024-01-25T05:28:11;27.17;;;6.30;;
31694;SDS011;18289;51.330;4.946;2024-01-25T05:30:37;36.25;;;8.20;;
31694;SDS011;18289;51.330;4.946;2024-01-25T05:33:03;26.02;;;6.50;;
31694;SDS011;18289;51.330;4.946;2024-01-25T05:35:29;23.30;;;7.35;;
31694;SDS011;18289;51.330;4.946;2024-01-25T05:37:54;32.90;;;7.03;;
31694;SDS011;18289;51.330;4.946;2024-01-25T05:40:20;26.88;;;8.10;;
31694;SDS011;18289;51.330;4.946;2024-01-25T05:42:46;24.58;;;8.13;;
31694;SDS011;18289;51.330;4.946;2024-01-25T05:45:11;36.13;;;7.88;;
31694;SDS011;18289;51.330;4.946;2024-01-25T05:47:37;31.42;;;8.48;;
31694;SDS011;18289;51.330;4.946;2024-01-25T05:50:03;43.05;;;8.48;;
31694;SDS011;18289;51.330;4.946;2024-01-25T05:52:30;32.33;;;6.72;;
31694;SDS011;18289;51.330;4.946;2024-01-25T05:54:56;26.45;;;6.63;;
31694;SDS011;18289;51.330;4.946;2024-01-25T05:57:21;27.58;;;6.63;;
31694;SDS011;18289;51.330;4.946;2024-01-25T05:59:47;31.73;;;7.60;;
31694;SDS011;18289;51.330;4.946;2024-01-25T06:02:13;40.03;;;9.18;;
31694;SDS011;18289;51.330;4.946;2024-01-25T06:04:39;33.75;;;7.30;;
31694;SDS011;18289;51.330;4.946;2024-01-25T06:07:04;36.75;;;7.88;;
31694;SDS011;18289;51.330;4.946;2024-01-25T06:09:30;37.85;;;8.75;;
31694;SDS011;18289;51.330;4.946;2024-01-25T06:11:57;46.28;;;9.05;;
31694;SDS011;18289;51.330;4.946;2024-01-25T06:14:23;28.05;;;7.63;;
31694;SDS011;18289;51.330;4.946;2024-01-25T06:16:49;31.48;;;7.50;;
31694;SDS011;18289;51.330;4.946;2024-01-25T06:19:15;28.13;;;6.95;;
31694;SDS011;18289;51.330;4.946;2024-01-25T06:21:40;25.05;;;7.22;;
31694;SDS011;18289;51.330;4.946;2024-01-25T06:24:09;34.67;;;7.97;;
31694;SDS011;18289;51.330;4.946;2024-01-25T06:26:35;34.40;;;7.18;;
31694;SDS011;18289;51.330;4.946;2024-01-25T06:29:00;19.30;;;6.38;;
31694;SDS011;18289;51.330;4.946;2024-01-25T06:31:26;25.23;;;6.40;;
31694;SDS011;18289;51.330;4.946;2024-01-25T06:33:52;35.67;;;8.20;;
31694;SDS011;18289;51.330;4.946;2024-01-25T06:36:18;29.33;;;7.43;;
31694;SDS011;18289;51.330;4.946;2024-01-25T06:38:44;37.67;;;8.40;;
31694;SDS011;18289;51.330;4.946;2024-01-25T06:41:10;27.13;;;8.32;;
31694;SDS011;18289;51.330;4.946;2024-01-25T06:43:36;30.08;;;7.32;;
31694;SDS011;18289;51.330;4.946;2024-01-25T06:46:02;43.60;;;8.15;;
31694;SDS011;18289;51.330;4.946;2024-01-25T06:48:28;35.85;;;7.82;;
31694;SDS011;18289;51.330;4.946;2024-01-25T06:50:54;31.00;;;8.18;;
31694;SDS011;18289;51.330;4.946;2024-01-25T06:53:20;57.92;;;10.32;;
31694;SDS011;18289;51.330;4.946;2024-01-25T06:55:46;39.97;;;10.27;;
31694;SDS011;18289;51.330;4.946;2024-01-25T06:58:12;48.78;;;10.73;;
31694;SDS011;18289;51.330;4.946;2024-01-25T07:00:38;44.47;;;9.77;;
31694;SDS011;18289;51.330;4.946;2024-01-25T07:03:04;54.40;;;9.57;;
31694;SDS011;18289;51.330;4.946;2024-01-25T07:05:30;56.15;;;10.88;;
31694;SDS011;18289;51.330;4.946;2024-01-25T07:07:58;53.72;;;11.00;;
31694;SDS011;18289;51.330;4.946;2024-01-25T07:10:24;40.35;;;9.90;;
31694;SDS011;18289;51.330;4.946;2024-01-25T07:12:50;50.35;;;9.82;;
31694;SDS011;18289;51.330;4.946;2024-01-25T07:15:17;57.55;;;10.50;;
31694;SDS011;18289;51.330;4.946;2024-01-25T07:17:42;49.55;;;10.57;;
31694;SDS011;18289;51.330;4.946;2024-01-25T07:20:08;47.13;;;10.27;;
31694;SDS011;18289;51.330;4.946;2024-01-25T07:22:34;51.45;;;9.00;;
31694;SDS011;18289;51.330;4.946;2024-01-25T07:25:00;60.28;;;12.48;;
31694;SDS011;18289;51.330;4.946;2024-01-25T07:27:26;38.00;;;10.85;;
31694;SDS011;18289;51.330;4.946;2024-01-25T07:29:52;51.58;;;11.50;;
31694;SDS011;18289;51.330;4.946;2024-01-25T07:32:18;51.22;;;12.23;;
31694;SDS011;18289;51.330;4.946;2024-01-25T07:34:45;51.92;;;13.18;;
31694;SDS011;18289;51.330;4.946;2024-01-25T07:37:11;46.25;;;11.43;;
31694;SDS011;18289;51.330;4.946;2024-01-25T07:39:37;49.35;;;12.00;;
31694;SDS011;18289;51.330;4.946;2024-01-25T07:42:03;53.45;;;11.45;;
31694;SDS011;18289;51.330;4.946;2024-01-25T07:44:29;51.78;;;12.27;;
31694;SDS011;18289;51.330;4.946;2024-01-25T07:46:54;40.95;;;11.00;;
31694;SDS011;18289;51.330;4.946;2024-01-25T07:49:20;60.00;;;13.30;;
31694;SDS011;18289;51.330;4.946;2024-01-25T07:51:46;46.72;;;11.75;;
31694;SDS011;18289;51.330;4.946;2024-01-25T07:54:12;53.13;;;12.40;;
31694;SDS011;18289;51.330;4.946;2024-01-25T07:56:38;44.17;;;13.30;;
31694;SDS011;18289;51.330;4.946;2024-01-25T07:59:04;60.95;;;12.05;;
31694;SDS011;18289;51.330;4.946;2024-01-25T08:01:29;49.45;;;12.00;;
31694;SDS011;18289;51.330;4.946;2024-01-25T08:03:55;56.83;;;13.20;;
31694;SDS011;18289;51.330;4.946;2024-01-25T08:06:21;47.95;;;10.73;;
31694;SDS011;18289;51.330;4.946;2024-01-25T08:08:47;56.55;;;13.18;;
31694;SDS011;18289;51.330;4.946;2024-01-25T08:11:13;42.45;;;11.23;;
31694;SDS011;18289;51.330;4.946;2024-01-25T08:13:43;48.80;;;12.15;;
31694;SDS011;18289;51.330;4.946;2024-01-25T08:16:09;44.83;;;12.18;;
31694;SDS011;18289;51.330;4.946;2024-01-25T08:21:04;38.42;;;10.45;;
31694;SDS011;18289;51.330;4.946;2024-01-25T08:23:30;45.17;;;11.30;;
31694;SDS011;18289;51.330;4.946;2024-01-25T08:25:56;49.17;;;12.13;;
31694;SDS011;18289;51.330;4.946;2024-01-25T08:28:22;43.42;;;10.63;;
31694;SDS011;18289;51.330;4.946;2024-01-25T08:30:47;32.60;;;10.02;;
31694;SDS011;18289;51.330;4.946;2024-01-25T08:33:13;42.38;;;10.25;;
31694;SDS011;18289;51.330;4.946;2024-01-25T08:35:40;41.88;;;10.60;;
31694;SDS011;18289;51.330;4.946;2024-01-25T08:38:06;34.63;;;9.65;;
31694;SDS011;18289;51.330;4.946;2024-01-25T08:40:32;40.05;;;10.45;;
31694;SDS011;18289;51.330;4.946;2024-01-25T08:42:58;49.70;;;10.40;;
31694;SDS011;18289;51.330;4.946;2024-01-25T08:45:24;46.70;;;10.02;;
31694;SDS011;18289;51.330;4.946;2024-01-25T08:47:50;42.60;;;10.18;;
31694;SDS011;18289;51.330;4.946;2024-01-25T08:50:17;43.58;;;11.05;;
31694;SDS011;18289;51.330;4.946;2024-01-25T08:52:43;41.35;;;9.18;;
31694;SDS011;18289;51.330;4.946;2024-01-25T08:55:09;32.83;;;9.68;;
31694;SDS011;18289;51.330;4.946;2024-01-25T08:57:35;35.40;;;9.00;;
31694;SDS011;18289;51.330;4.946;2024-01-25T09:00:01;43.08;;;10.40;;
31694;SDS011;18289;51.330;4.946;2024-01-25T09:02:33;37.20;;;9.38;;
31694;SDS011;18289;51.330;4.946;2024-01-25T09:04:59;45.22;;;9.70;;
31694;SDS011;18289;51.330;4.946;2024-01-25T09:07:25;34.03;;;9.73;;
31694;SDS011;18289;51.330;4.946;2024-01-25T09:09:50;33.58;;;8.60;;
31694;SDS011;18289;51.330;4.946;2024-01-25T09:12:16;49.60;;;10.30;;
31694;SDS011;18289;51.330;4.946;2024-01-25T09:14:42;38.15;;;9.38;;
31694;SDS011;18289;51.330;4.946;2024-01-25T09:17:08;33.38;;;9.10;;
31694;SDS011;18289;51.330;4.946;2024-01-25T09:19:34;48.10;;;9.95;;
31694;SDS011;18289;51.330;4.946;2024-01-25T09:22:00;37.30;;;8.52;;
31694;SDS011;18289;51.330;4.946;2024-01-25T09:24:29;36.70;;;9.90;;
31694;SDS011;18289;51.330;4.946;2024-01-25T09:27:01;41.53;;;11.63;;
31694;SDS011;18289;51.330;4.946;2024-01-25T09:29:27;41.78;;;11.15;;
31694;SDS011;18289;51.330;4.946;2024-01-25T09:31:53;44.50;;;10.32;;
31694;SDS011;18289;51.330;4.946;2024-01-25T09:34:19;36.20;;;11.55;;
31694;SDS011;18289;51.330;4.946;2024-01-25T09:36:46;38.60;;;11.23;;
31694;SDS011;18289;51.330;4.946;2024-01-25T09:39:12;35.38;;;9.90;;
31694;SDS011;18289;51.330;4.946;2024-01-25T09:41:39;39.25;;;10.75;;
31694;SDS011;18289;51.330;4.946;2024-01-25T09:44:07;45.97;;;10.38;;
31694;SDS011;18289;51.330;4.946;2024-01-25T09:46:33;38.75;;;9.23;;
31694;SDS011;18289;51.330;4.946;2024-01-25T09:49:00;40.50;;;10.00;;
31694;SDS011;18289;51.330;4.946;2024-01-25T09:51:30;41.97;;;10.02;;
31694;SDS011;18289;51.330;4.946;2024-01-25T09:54:02;38.20;;;10.40;;
31694;SDS011;18289;51.330;4.946;2024-01-25T09:56:29;28.65;;;9.70;;
31694;SDS011;18289;51.330;4.946;2024-01-25T09:58:57;31.88;;;9.15;;
31694;SDS011;18289;51.330;4.946;2024-01-25T10:01:24;27.70;;;8.93;;
31694;SDS011;18289;51.330;4.946;2024-01-25T10:03:49;34.33;;;10.52;;
31694;SDS011;18289;51.330;4.946;2024-01-25T10:06:15;30.00;;;9.05;;
31694;SDS011;18289;51.330;4.946;2024-01-25T10:08:42;34.50;;;10.02;;
31694;SDS011;18289;51.330;4.946;2024-01-25T10:11:08;33.33;;;9.73;;
31694;SDS011;18289;51.330;4.946;2024-01-25T10:13:40;40.70;;;9.65;;
31694;SDS011;18289;51.330;4.946;2024-01-25T10:16:12;40.65;;;10.38;;
31694;SDS011;18289;51.330;4.946;2024-01-25T10:18:42;32.60;;;9.82;;
31694;SDS011;18289;51.330;4.946;2024-01-25T10:21:12;37.78;;;10.20;;
31694;SDS011;18289;51.330;4.946;2024-01-25T10:23:39;30.25;;;9.57;;
31694;SDS011;18289;51.330;4.946;2024-01-25T10:26:05;31.25;;;8.27;;
31694;SDS011;18289;51.330;4.946;2024-01-25T10:28:33;35.13;;;9.75;;
31694;SDS011;18289;51.330;4.946;2024-01-25T10:31:02;34.72;;;8.52;;
31694;SDS011;18289;51.330;4.946;2024-01-25T10:33:31;33.35;;;10.40;;
31694;SDS011;18289;51.330;4.946;2024-01-25T10:35:57;32.22;;;8.27;;
31694;SDS011;18289;51.330;4.946;2024-01-25T10:38:33;30.45;;;9.77;;
31694;SDS011;18289;51.330;4.946;2024-01-25T10:41:03;29.90;;;9.73;;
31694;SDS011;18289;51.330;4.946;2024-01-25T10:43:33;27.63;;;9.68;;
31694;SDS011;18289;51.330;4.946;2024-01-25T10:45:59;35.88;;;10.18;;
31694;SDS011;18289;51.330;4.946;2024-01-25T10:48:28;28.50;;;9.15;;
31694;SDS011;18289;51.330;4.946;2024-01-25T10:50:56;38.03;;;8.80;;
31694;SDS011;18289;51.330;4.946;2024-01-25T10:53:24;28.98;;;8.75;;
31694;SDS011;18289;51.330;4.946;2024-01-25T10:55:50;31.35;;;8.65;;
31694;SDS011;18289;51.330;4.946;2024-01-25T10:58:16;32.60;;;9.32;;
31694;SDS011;18289;51.330;4.946;2024-01-25T11:00:51;30.92;;;9.48;;
31694;SDS011;18289;51.330;4.946;2024-01-25T11:03:20;29.02;;;10.27;;
31694;SDS011;18289;51.330;4.946;2024-01-25T11:05:50;29.40;;;9.55;;
31694;SDS011;18289;51.330;4.946;2024-01-25T11:08:18;32.20;;;9.95;;
31694;SDS011;18289;51.330;4.946;2024-01-25T11:10:47;26.00;;;8.60;;
31694;SDS011;18289;51.330;4.946;2024-01-25T11:13:17;26.17;;;9.35;;
31694;SDS011;18289;51.330;4.946;2024-01-25T11:15:49;44.17;;;10.68;;
31694;SDS011;18289;51.330;4.946;2024-01-25T11:18:16;28.05;;;8.50;;
31694;SDS011;18289;51.330;4.946;2024-01-25T11:20:41;30.15;;;10.82;;
31694;SDS011;18289;51.330;4.946;2024-01-25T11:23:07;29.13;;;10.05;;
31694;SDS011;18289;51.330;4.946;2024-01-25T11:25:34;26.35;;;9.60;;
31694;SDS011;18289;51.330;4.946;2024-01-25T11:28:02;35.85;;;9.05;;
31694;SDS011;18289;51.330;4.946;2024-01-25T11:30:30;34.67;;;9.52;;
31694;SDS011;18289;51.330;4.946;2024-01-25T11:35:27;27.55;;;9.27;;
31694;SDS011;18289;51.330;4.946;2024-01-25T11:37:53;32.92;;;11.15;;
31694;SDS011;18289;51.330;4.946;2024-01-25T11:40:19;33.10;;;10.70;;
31694;SDS011;18289;51.330;4.946;2024-01-25T11:42:49;31.35;;;10.23;;
31694;SDS011;18289;51.330;4.946;2024-01-25T11:47:41;37.30;;;9.88;;
31694;SDS011;18289;51.330;4.946;2024-01-25T11:50:08;33.50;;;9.02;;
31694;SDS011;18289;51.330;4.946;2024-01-25T11:52:36;30.42;;;9.45;;
31694;SDS011;18289;51.330;4.946;2024-01-25T11:55:02;27.85;;;8.82;;
31694;SDS011;18289;51.330;4.946;2024-01-25T11:57:32;27.63;;;8.85;;
31694;SDS011;18289;51.330;4.946;2024-01-25T12:00:02;26.98;;;9.40;;
31694;SDS011;18289;51.330;4.946;2024-01-25T12:02:30;24.30;;;8.53;;
31694;SDS011;18289;51.330;4.946;2024-01-25T12:04:56;28.65;;;9.60;;
31694;SDS011;18289;51.330;4.946;2024-01-25T12:07:22;31.48;;;9.45;;
31694;SDS011;18289;51.330;4.946;2024-01-25T12:10:07;28.73;;;9.75;;
31694;SDS011;18289;51.330;4.946;2024-01-25T12:12:40;26.45;;;9.80;;
31694;SDS011;18289;51.330;4.946;2024-01-25T12:15:06;28.05;;;10.77;;
31694;SDS011;18289;51.330;4.946;2024-01-25T12:17:32;24.17;;;9.20;;
31694;SDS011;18289;51.330;4.946;2024-01-25T12:20:01;28.40;;;10.88;;
31694;SDS011;18289;51.330;4.946;2024-01-25T12:22:27;27.27;;;10.30;;
31694;SDS011;18289;51.330;4.946;2024-01-25T12:24:54;29.88;;;10.65;;
31694;SDS011;18289;51.330;4.946;2024-01-25T12:27:23;22.52;;;11.85;;
31694;SDS011;18289;51.330;4.946;2024-01-25T12:29:51;28.48;;;12.93;;
31694;SDS011;18289;51.330;4.946;2024-01-25T12:32:18;33.67;;;12.82;;
31694;SDS011;18289;51.330;4.946;2024-01-25T12:34:57;27.65;;;12.45;;
31694;SDS011;18289;51.330;4.946;2024-01-25T12:37:26;26.40;;;11.10;;
31694;SDS011;18289;51.330;4.946;2024-01-25T12:39:52;28.17;;;12.45;;
31694;SDS011;18289;51.330;4.946;2024-01-25T12:42:19;25.20;;;11.57;;
31694;SDS011;18289;51.330;4.946;2024-01-25T12:44:46;25.33;;;12.40;;
31694;SDS011;18289;51.330;4.946;2024-01-25T12:47:12;26.92;;;12.00;;
31694;SDS011;18289;51.330;4.946;2024-01-25T12:49:41;22.85;;;12.50;;
31694;SDS011;18289;51.330;4.946;2024-01-25T12:52:08;27.95;;;12.45;;
31694;SDS011;18289;51.330;4.946;2024-01-25T12:54:34;29.73;;;12.10;;
31694;SDS011;18289;51.330;4.946;2024-01-25T12:57:00;30.30;;;12.18;;
31694;SDS011;18289;51.330;4.946;2024-01-25T12:59:26;27.98;;;12.10;;
31694;SDS011;18289;51.330;4.946;2024-01-25T13:01:52;28.33;;;12.00;;
31694;SDS011;18289;51.330;4.946;2024-01-25T13:04:18;22.70;;;11.80;;
31694;SDS011;18289;51.330;4.946;2024-01-25T13:06:45;22.85;;;11.75;;
31694;SDS011;18289;51.330;4.946;2024-01-25T13:09:11;29.88;;;12.55;;
31694;SDS011;18289;51.330;4.946;2024-01-25T13:11:37;30.63;;;13.00;;
31694;SDS011;18289;51.330;4.946;2024-01-25T13:14:03;36.15;;;14.25;;
31694;SDS011;18289;51.330;4.946;2024-01-25T13:16:29;27.05;;;12.90;;
31694;SDS011;18289;51.330;4.946;2024-01-25T13:18:55;25.75;;;12.25;;
31694;SDS011;18289;51.330;4.946;2024-01-25T13:21:20;25.58;;;12.93;;
31694;SDS011;18289;51.330;4.946;2024-01-25T13:23:46;27.05;;;13.25;;
31694;SDS011;18289;51.330;4.946;2024-01-25T13:26:12;30.35;;;13.13;;
31694;SDS011;18289;51.330;4.946;2024-01-25T13:28:37;26.38;;;13.43;;
31694;SDS011;18289;51.330;4.946;2024-01-25T13:31:03;29.42;;;12.85;;
31694;SDS011;18289;51.330;4.946;2024-01-25T13:33:29;31.58;;;12.90;;
31694;SDS011;18289;51.330;4.946;2024-01-25T13:35:55;36.70;;;13.43;;
31694;SDS011;18289;51.330;4.946;2024-01-25T13:38:20;28.45;;;13.30;;
31694;SDS011;18289;51.330;4.946;2024-01-25T13:40:46;29.58;;;12.95;;
31694;SDS011;18289;51.330;4.946;2024-01-25T13:43:12;32.17;;;13.38;;
31694;SDS011;18289;51.330;4.946;2024-01-25T13:45:38;27.15;;;12.27;;
31694;SDS011;18289;51.330;4.946;2024-01-25T13:48:03;28.38;;;12.93;;
31694;SDS011;18289;51.330;4.946;2024-01-25T13:50:29;35.53;;;12.88;;
31694;SDS011;18289;51.330;4.946;2024-01-25T13:52:55;31.08;;;12.77;;
31694;SDS011;18289;51.330;4.946;2024-01-25T13:55:21;35.00;;;13.07;;
31694;SDS011;18289;51.330;4.946;2024-01-25T13:57:46;30.70;;;13.52;;
31694;SDS011;18289;51.330;4.946;2024-01-25T14:00:12;31.67;;;13.30;;
31694;SDS011;18289;51.330;4.946;2024-01-25T14:02:39;25.55;;;13.35;;
31694;SDS011;18289;51.330;4.946;2024-01-25T14:05:07;33.28;;;12.95;;
31694;SDS011;18289;51.330;4.946;2024-01-25T14:07:33;30.95;;;13.02;;
31694;SDS011;18289;51.330;4.946;2024-01-25T14:09:59;29.48;;;12.45;;
31694;SDS011;18289;51.330;4.946;2024-01-25T14:12:24;36.75;;;13.98;;
31694;SDS011;18289;51.330;4.946;2024-01-25T14:14:50;37.92;;;13.25;;
31694;SDS011;18289;51.330;4.946;2024-01-25T14:17:16;44.00;;;14.98;;
31694;SDS011;18289;51.330;4.946;2024-01-25T14:19:41;40.75;;;14.40;;
31694;SDS011;18289;51.330;4.946;2024-01-25T14:22:07;34.78;;;13.60;;
31694;SDS011;18289;51.330;4.946;2024-01-25T14:24:33;33.70;;;13.68;;
31694;SDS011;18289;51.330;4.946;2024-01-25T14:29:24;38.53;;;14.23;;
31694;SDS011;18289;51.330;4.946;2024-01-25T14:31:50;29.08;;;13.57;;
31694;SDS011;18289;51.330;4.946;2024-01-25T14:34:15;35.00;;;13.60;;
31694;SDS011;18289;51.330;4.946;2024-01-25T14:36:41;36.10;;;12.88;;
31694;SDS011;18289;51.330;4.946;2024-01-25T14:39:07;41.80;;;13.82;;
31694;SDS011;18289;51.330;4.946;2024-01-25T14:41:33;34.88;;;13.23;;
31694;SDS011;18289;51.330;4.946;2024-01-25T14:43:59;34.88;;;13.98;;
31694;SDS011;18289;51.330;4.946;2024-01-25T14:46:25;38.08;;;12.65;;
31694;SDS011;18289;51.330;4.946;2024-01-25T14:48:51;42.50;;;15.27;;